sensor_id;sensor_type;location;lat;lon;timestamp;pressure;altitude;pressure_sealevel;temperature;humidity
6534;BME280;3300;42.698;23.332;2023-07-24T13:35:30;46914.84;;;-141.77;49.05
6534;BME280;3300;42.698;23.332;2023-07-24T13:37:57;46895.28;;;-141.77;50.22
6534;BME280;3300;42.698;23.332;2023-07-24T13:40:23;46903.09;;;-141.77;53.35
6534;BME280;3300;42.698;23.332;2023-07-24T13:42:50;46895.28;;;-141.77;58.09
6534;BME280;3300;42.698;23.332;2023-07-24T13:45:17;46877.66;;;-141.77;47.27
6534;BME280;3300;42.698;23.332;2023-07-24T13:47:43;46885.47;;;-141.77;49.37
6534;BME280;3300;42.698;23.332;2023-07-24T13:50:10;46901.13;;;-141.77;50.30
6534;BME280;3300;42.698;23.332;2023-07-24T13:52:38;46930.50;;;-141.77;51.00
6534;BME280;3300;42.698;23.332;2023-07-24T13:55:05;46916.78;;;-141.77;51.28
6534;BME280;3300;42.698;23.332;2023-07-24T13:57:32;46932.44;;;-141.77;51.36
6534;BME280;3300;42.698;23.332;2023-07-24T13:59:59;46938.31;;;-141.77;51.55
6534;BME280;3300;42.698;23.332;2023-07-24T14:02:26;46908.97;;;-141.77;51.37
6534;BME280;3300;42.698;23.332;2023-07-24T14:04:52;46936.38;;;-141.77;51.51
6534;BME280;3300;42.698;23.332;2023-07-24T14:07:19;46922.66;;;-141.77;51.50
6534;BME280;3300;42.698;23.332;2023-07-24T14:09:47;46905.06;;;-141.77;51.30
6534;BME280;3300;42.698;23.332;2023-07-24T14:12:14;46930.50;;;-141.77;51.58
6534;BME280;3300;42.698;23.332;2023-07-24T14:14:41;46918.75;;;-141.77;51.27
6534;BME280;3300;42.698;23.332;2023-07-24T14:17:08;46932.44;;;-141.77;50.97
6534;BME280;3300;42.698;23.332;2023-07-24T14:19:35;46908.97;;;-141.77;50.63
6534;BME280;3300;42.698;23.332;2023-07-24T14:22:05;46912.88;;;-141.77;50.22
6534;BME280;3300;42.698;23.332;2023-07-24T14:24:32;46922.66;;;-141.77;50.15
6534;BME280;3300;42.698;23.332;2023-07-24T14:27:00;46920.72;;;-141.77;50.22
6534;BME280;3300;42.698;23.332;2023-07-24T14:29:26;46910.94;;;-141.77;49.99
6534;BME280;3300;42.698;23.332;2023-07-24T14:31:53;46928.53;;;-141.77;49.97
6534;BME280;3300;42.698;23.332;2023-07-24T14:34:20;46914.84;;;-141.77;49.80
6534;BME280;3300;42.698;23.332;2023-07-24T14:36:46;46926.59;;;-141.77;49.92
6534;BME280;3300;42.698;23.332;2023-07-24T14:39:13;46905.06;;;-141.77;49.92
6534;BME280;3300;42.698;23.332;2023-07-24T14:41:40;46952.03;;;-141.77;49.71
6534;BME280;3300;42.698;23.332;2023-07-24T14:44:10;46916.78;;;-141.77;49.52
6534;BME280;3300;42.698;23.332;2023-07-24T14:46:36;46910.94;;;-141.77;49.44
6534;BME280;3300;42.698;23.332;2023-07-24T14:49:03;46916.78;;;-141.77;49.39
6534;BME280;3300;42.698;23.332;2023-07-24T14:51:30;46912.88;;;-141.77;50.93
6534;BME280;3300;42.698;23.332;2023-07-24T14:53:56;46903.09;;;-141.77;51.25
6534;BME280;3300;42.698;23.332;2023-07-24T14:57:19;46912.88;;;18.23;51.28
6534;BME280;3300;42.698;23.332;2023-07-24T15:00:45;46916.78;;;28.23;51.35
6534;BME280;3300;42.698;23.332;2023-07-24T15:03:12;46899.19;;;28.23;51.27
6534;BME280;3300;42.698;23.332;2023-07-24T15:05:39;46887.44;;;28.23;51.20
6534;BME280;3300;42.698;23.332;2023-07-24T15:08:05;46901.13;;;28.23;51.15
6534;BME280;3300;42.698;23.332;2023-07-24T15:10:32;46920.72;;;28.23;50.93
6534;BME280;3300;42.698;23.332;2023-07-24T15:12:59;46936.38;;;28.23;50.92
6534;BME280;3300;42.698;23.332;2023-07-24T15:15:26;46926.59;;;28.23;50.72
6534;BME280;3300;42.698;23.332;2023-07-24T15:17:55;46901.13;;;28.23;50.72
6534;BME280;3300;42.698;23.332;2023-07-24T15:20:22;46881.56;;;28.23;50.46
6534;BME280;3300;42.698;23.332;2023-07-24T15:22:48;46916.78;;;28.23;50.24
6534;BME280;3300;42.698;23.332;2023-07-24T15:25:15;46916.78;;;28.23;49.97
6534;BME280;3300;42.698;23.332;2023-07-24T15:27:42;46930.50;;;28.23;49.97
6534;BME280;3300;42.698;23.332;2023-07-24T15:30:09;46897.22;;;28.23;49.74
6534;BME280;3300;42.698;23.332;2023-07-24T15:32:35;46908.97;;;28.23;49.70
6534;BME280;3300;42.698;23.332;2023-07-24T15:35:04;46905.06;;;28.23;49.43
6534;BME280;3300;42.698;23.332;2023-07-24T15:37:31;46924.63;;;28.23;49.28
6534;BME280;3300;42.698;23.332;2023-07-24T15:39:58;46932.44;;;28.23;48.97
6534;BME280;3300;42.698;23.332;2023-07-24T15:42:25;46930.50;;;28.23;48.96
6534;BME280;3300;42.698;23.332;2023-07-24T15:44:52;46908.97;;;28.23;48.96
6534;BME280;3300;42.698;23.332;2023-07-24T15:47:18;46879.63;;;28.23;48.71
6534;BME280;3300;42.698;23.332;2023-07-24T15:49:45;46910.94;;;28.23;49.68
6534;BME280;3300;42.698;23.332;2023-07-24T15:52:13;46912.88;;;28.23;49.86
6534;BME280;3300;42.698;23.332;2023-07-24T15:54:40;46918.75;;;28.23;49.91
6534;BME280;3300;42.698;23.332;2023-07-24T15:57:07;46901.13;;;28.23;49.95
6534;BME280;3300;42.698;23.332;2023-07-24T15:59:34;46916.78;;;28.23;50.26
6534;BME280;3300;42.698;23.332;2023-07-24T16:02:00;46918.75;;;28.23;49.92
6534;BME280;3300;42.698;23.332;2023-07-24T16:04:27;46901.13;;;28.23;50.06
6534;BME280;3300;42.698;23.332;2023-07-24T16:06:54;46908.97;;;28.23;50.01
6534;BME280;3300;42.698;23.332;2023-07-24T16:09:22;46920.72;;;28.23;49.20
6534;BME280;3300;42.698;23.332;2023-07-24T16:11:49;46942.25;;;28.23;48.82
6534;BME280;3300;42.698;23.332;2023-07-24T16:14:15;46928.53;;;28.23;48.71
6534;BME280;3300;42.698;23.332;2023-07-24T16:16:42;46922.66;;;28.23;48.43
6534;BME280;3300;42.698;23.332;2023-07-24T16:19:13;46879.63;;;28.23;48.00
6534;BME280;3300;42.698;23.332;2023-07-24T16:21:40;46895.28;;;28.23;48.17
6534;BME280;3300;42.698;23.332;2023-07-24T16:24:07;46912.88;;;28.23;47.89
6534;BME280;3300;42.698;23.332;2023-07-24T16:26:36;46924.63;;;28.23;47.86
6534;BME280;3300;42.698;23.332;2023-07-24T16:29:03;46920.72;;;28.23;48.91
6534;BME280;3300;42.698;23.332;2023-07-24T16:31:31;46893.31;;;28.23;49.03
6534;BME280;3300;42.698;23.332;2023-07-24T16:33:58;46897.22;;;28.23;49.46
6534;BME280;3300;42.698;23.332;2023-07-24T16:36:24;46893.31;;;28.23;49.26
6534;BME280;3300;42.698;23.332;2023-07-24T16:38:51;46881.56;;;28.23;49.53
6534;BME280;3300;42.698;23.332;2023-07-24T16:41:18;46905.06;;;28.23;49.54
6534;BME280;3300;42.698;23.332;2023-07-24T16:43:46;46899.19;;;28.23;49.71
6534;BME280;3300;42.698;23.332;2023-07-24T16:46:13;46924.63;;;28.23;49.26
6534;BME280;3300;42.698;23.332;2023-07-24T16:48:39;46877.66;;;28.23;49.38
6534;BME280;3300;42.698;23.332;2023-07-24T16:51:07;46893.31;;;28.23;49.39
6534;BME280;3300;42.698;23.332;2023-07-24T16:53:34;46899.19;;;28.23;49.45
6534;BME280;3300;42.698;23.332;2023-07-24T16:56:01;46877.66;;;28.23;50.01
6534;BME280;3300;42.698;23.332;2023-07-24T16:58:27;46912.88;;;28.23;49.93
6534;BME280;3300;42.698;23.332;2023-07-24T17:00:55;46897.22;;;28.23;49.67
6534;BME280;3300;42.698;23.332;2023-07-24T17:03:22;46901.13;;;28.23;49.50
6534;BME280;3300;42.698;23.332;2023-07-24T17:05:49;46908.97;;;28.23;50.40
6534;BME280;3300;42.698;23.332;2023-07-24T17:08:15;46891.34;;;28.23;50.55
6534;BME280;3300;42.698;23.332;2023-07-24T17:10:44;46895.28;;;28.23;50.58
6534;BME280;3300;42.698;23.332;2023-07-24T17:13:11;46865.91;;;28.23;50.63
6534;BME280;3300;42.698;23.332;2023-07-24T17:15:37;46895.28;;;28.23;50.61
6534;BME280;3300;42.698;23.332;2023-07-24T17:18:06;46881.56;;;28.23;50.62
6534;BME280;3300;42.698;23.332;2023-07-24T17:20:32;46905.06;;;28.23;50.53
6534;BME280;3300;42.698;23.332;2023-07-24T17:22:59;46905.06;;;28.23;50.59
6534;BME280;3300;42.698;23.332;2023-07-24T17:25:26;46908.97;;;28.23;50.63
6534;BME280;3300;42.698;23.332;2023-07-24T17:27:53;46889.41;;;28.23;50.42
6534;BME280;3300;42.698;23.332;2023-07-24T17:30:19;46918.75;;;28.23;50.93
6534;BME280;3300;42.698;23.332;2023-07-24T17:32:46;46881.56;;;28.23;50.97
6534;BME280;3300;42.698;23.332;2023-07-24T17:35:14;46916.78;;;28.23;50.68
6534;BME280;3300;42.698;23.332;2023-07-24T17:37:41;46926.59;;;28.23;50.50
6534;BME280;3300;42.698;23.332;2023-07-24T17:40:08;46897.22;;;28.23;50.64
6534;BME280;3300;42.698;23.332;2023-07-24T17:42:35;46912.88;;;28.23;51.25
6534;BME280;3300;42.698;23.332;2023-07-24T17:45:02;46908.97;;;28.23;51.05
6534;BME280;3300;42.698;23.332;2023-07-24T17:47:29;46897.22;;;28.23;51.29
6534;BME280;3300;42.698;23.332;2023-07-24T17:49:56;46897.22;;;28.23;51.18
6534;BME280;3300;42.698;23.332;2023-07-24T17:52:24;46893.31;;;28.23;51.06
6534;BME280;3300;42.698;23.332;2023-07-24T17:54:51;46903.09;;;28.23;51.14
6534;BME280;3300;42.698;23.332;2023-07-24T17:57:17;46867.88;;;28.23;51.16
6534;BME280;3300;42.698;23.332;2023-07-24T17:59:44;46928.53;;;28.23;50.80
6534;BME280;3300;42.698;23.332;2023-07-24T18:02:12;46879.63;;;28.23;51.13
6534;BME280;3300;42.698;23.332;2023-07-24T18:04:38;46905.06;;;28.23;51.14
6534;BME280;3300;42.698;23.332;2023-07-24T18:07:05;46916.78;;;28.23;51.25
6534;BME280;3300;42.698;23.332;2023-07-24T18:09:33;46889.41;;;28.23;51.01
6534;BME280;3300;42.698;23.332;2023-07-24T18:12:00;46918.75;;;28.23;50.67
6534;BME280;3300;42.698;23.332;2023-07-24T18:14:27;46889.41;;;28.23;50.50
6534;BME280;3300;42.698;23.332;2023-07-24T18:16:53;46908.97;;;28.23;50.38
6534;BME280;3300;42.698;23.332;2023-07-24T18:19:20;46897.22;;;28.23;50.27
6534;BME280;3300;42.698;23.332;2023-07-24T18:21:47;46932.44;;;28.23;50.21
6534;BME280;3300;42.698;23.332;2023-07-24T18:24:13;46883.53;;;28.23;50.05
6534;BME280;3300;42.698;23.332;2023-07-24T18:26:43;46889.41;;;28.23;50.13
6534;BME280;3300;42.698;23.332;2023-07-24T18:29:10;46936.38;;;28.23;49.83
6534;BME280;3300;42.698;23.332;2023-07-24T18:31:36;46871.78;;;28.23;49.98
6534;BME280;3300;42.698;23.332;2023-07-24T18:34:03;46897.22;;;28.23;50.00
6534;BME280;3300;42.698;23.332;2023-07-24T18:36:30;46901.13;;;28.23;49.83
6534;BME280;3300;42.698;23.332;2023-07-24T18:38:56;46905.06;;;28.23;49.78
6534;BME280;3300;42.698;23.332;2023-07-24T18:41:23;46897.22;;;28.23;49.77
6534;BME280;3300;42.698;23.332;2023-07-24T18:43:51;46901.13;;;28.23;49.85
6534;BME280;3300;42.698;23.332;2023-07-24T18:46:18;46924.63;;;28.23;50.05
6534;BME280;3300;42.698;23.332;2023-07-24T18:48:44;46901.13;;;28.23;49.95
6534;BME280;3300;42.698;23.332;2023-07-24T18:51:11;46908.97;;;28.23;49.85
6534;BME280;3300;42.698;23.332;2023-07-24T18:53:38;46942.25;;;28.23;49.85
6534;BME280;3300;42.698;23.332;2023-07-24T18:56:05;46905.06;;;28.23;49.76
6534;BME280;3300;42.698;23.332;2023-07-24T18:58:32;46912.88;;;28.23;49.67
6534;BME280;3300;42.698;23.332;2023-07-24T19:01:00;46908.97;;;28.23;49.66
6534;BME280;3300;42.698;23.332;2023-07-24T19:03:26;46908.97;;;28.23;49.76
6534;BME280;3300;42.698;23.332;2023-07-24T19:05:55;46907.00;;;28.23;49.66
6534;BME280;3300;42.698;23.332;2023-07-24T19:08:22;46895.28;;;28.23;49.88
6534;BME280;3300;42.698;23.332;2023-07-24T19:10:49;46901.13;;;28.23;49.79
6534;BME280;3300;42.698;23.332;2023-07-24T19:13:17;46856.13;;;28.23;49.78
6534;BME280;3300;42.698;23.332;2023-07-24T19:15:43;46920.72;;;28.23;49.76
6534;BME280;3300;42.698;23.332;2023-07-24T19:18:11;46881.56;;;28.23;49.56
6534;BME280;3300;42.698;23.332;2023-07-24T19:20:38;46912.88;;;28.23;49.63
6534;BME280;3300;42.698;23.332;2023-07-24T19:23:05;46901.13;;;28.23;49.63
6534;BME280;3300;42.698;23.332;2023-07-24T19:25:31;46889.41;;;28.23;49.65
6534;BME280;3300;42.698;23.332;2023-07-24T19:27:58;46867.88;;;28.23;49.69
6534;BME280;3300;42.698;23.332;2023-07-24T19:30:25;46901.13;;;28.23;49.66
6534;BME280;3300;42.698;23.332;2023-07-24T19:32:51;46905.06;;;28.23;49.70
6534;BME280;3300;42.698;23.332;2023-07-24T19:35:19;46881.56;;;28.23;49.74
6534;BME280;3300;42.698;23.332;2023-07-24T19:37:46;46893.31;;;28.23;50.11
6534;BME280;3300;42.698;23.332;2023-07-24T19:40:13;46879.63;;;28.23;50.18
6534;BME280;3300;42.698;23.332;2023-07-24T19:42:40;46889.41;;;28.23;50.50
6534;BME280;3300;42.698;23.332;2023-07-24T19:45:07;46885.47;;;28.23;50.46
6534;BME280;3300;42.698;23.332;2023-07-24T19:47:34;46881.56;;;28.23;50.43
6534;BME280;3300;42.698;23.332;2023-07-24T19:50:00;46897.22;;;28.23;50.56
6534;BME280;3300;42.698;23.332;2023-07-24T19:52:29;46899.19;;;28.23;50.57
6534;BME280;3300;42.698;23.332;2023-07-24T19:54:57;46893.31;;;28.23;50.40
6534;BME280;3300;42.698;23.332;2023-07-24T19:57:24;46899.19;;;28.23;50.68
6534;BME280;3300;42.698;23.332;2023-07-24T19:59:50;46897.22;;;28.23;50.62
6534;BME280;3300;42.698;23.332;2023-07-24T20:02:17;46908.97;;;28.23;50.70
6534;BME280;3300;42.698;23.332;2023-07-24T20:04:44;46907.00;;;28.23;50.63
6534;BME280;3300;42.698;23.332;2023-07-24T20:07:10;46877.66;;;28.23;50.67
6534;BME280;3300;42.698;23.332;2023-07-24T20:09:39;46871.78;;;28.23;50.69
6534;BME280;3300;42.698;23.332;2023-07-24T20:12:06;46908.97;;;28.23;50.54
6534;BME280;3300;42.698;23.332;2023-07-24T20:14:33;46858.09;;;28.23;50.70
6534;BME280;3300;42.698;23.332;2023-07-24T20:17:00;46907.00;;;28.23;50.54
6534;BME280;3300;42.698;23.332;2023-07-24T20:19:26;46899.19;;;28.23;50.39
6534;BME280;3300;42.698;23.332;2023-07-24T20:21:53;46881.56;;;28.23;50.75
6534;BME280;3300;42.698;23.332;2023-07-24T20:24:20;46912.88;;;28.23;50.83
6534;BME280;3300;42.698;23.332;2023-07-24T20:26:48;46901.13;;;28.23;51.09
6534;BME280;3300;42.698;23.332;2023-07-24T20:29:15;46881.56;;;28.23;50.93
6534;BME280;3300;42.698;23.332;2023-07-24T20:31:41;46889.41;;;28.23;51.17
6534;BME280;3300;42.698;23.332;2023-07-24T20:34:09;46877.66;;;28.23;51.34
6534;BME280;3300;42.698;23.332;2023-07-24T20:36:36;46910.94;;;28.23;51.13
6534;BME280;3300;42.698;23.332;2023-07-24T20:39:04;46862.00;;;28.23;51.24
6534;BME280;3300;42.698;23.332;2023-07-24T20:41:30;46881.56;;;28.23;51.50
6534;BME280;3300;42.698;23.332;2023-07-24T20:44:00;46879.63;;;28.23;51.28
6534;BME280;3300;42.698;23.332;2023-07-24T20:46:27;46871.78;;;28.23;51.32
6534;BME280;3300;42.698;23.332;2023-07-24T20:48:53;46885.47;;;28.23;51.62
6534;BME280;3300;42.698;23.332;2023-07-24T20:51:20;46877.66;;;28.23;51.39
6534;BME280;3300;42.698;23.332;2023-07-24T20:53:48;46910.94;;;28.23;51.53
6534;BME280;3300;42.698;23.332;2023-07-24T20:56:15;46910.94;;;28.23;51.41
6534;BME280;3300;42.698;23.332;2023-07-24T20:58:43;46901.13;;;28.23;51.42
6534;BME280;3300;42.698;23.332;2023-07-24T21:01:11;46885.47;;;28.23;51.52
6534;BME280;3300;42.698;23.332;2023-07-24T21:03:38;46893.31;;;28.23;51.41
6534;BME280;3300;42.698;23.332;2023-07-24T21:06:05;46901.13;;;28.23;51.41
6534;BME280;3300;42.698;23.332;2023-07-24T21:08:31;46895.28;;;28.23;51.23
6534;BME280;3300;42.698;23.332;2023-07-24T21:10:58;46881.56;;;28.23;51.17
6534;BME280;3300;42.698;23.332;2023-07-24T21:13:25;46897.22;;;28.23;51.23
6534;BME280;3300;42.698;23.332;2023-07-24T21:15:51;46889.41;;;28.23;51.07
6534;BME280;3300;42.698;23.332;2023-07-24T21:18:21;46914.84;;;28.23;51.25
6534;BME280;3300;42.698;23.332;2023-07-24T21:20:47;46905.06;;;28.23;51.04
6534;BME280;3300;42.698;23.332;2023-07-24T21:23:14;46908.97;;;28.23;51.09
6534;BME280;3300;42.698;23.332;2023-07-24T21:25:49;46893.31;;;28.23;51.15
6534;BME280;3300;42.698;23.332;2023-07-24T21:28:17;46873.75;;;28.23;51.11
6534;BME280;3300;42.698;23.332;2023-07-24T21:30:43;46889.41;;;28.23;51.11
6534;BME280;3300;42.698;23.332;2023-07-24T21:33:10;46908.97;;;28.23;51.00
6534;BME280;3300;42.698;23.332;2023-07-24T21:35:38;46907.00;;;28.23;51.00
6534;BME280;3300;42.698;23.332;2023-07-24T21:38:05;46897.22;;;28.23;51.07
6534;BME280;3300;42.698;23.332;2023-07-24T21:40:33;46889.41;;;28.23;51.13
6534;BME280;3300;42.698;23.332;2023-07-24T21:42:59;46893.31;;;28.23;51.15
6534;BME280;3300;42.698;23.332;2023-07-24T21:45:26;46901.13;;;28.23;51.06
6534;BME280;3300;42.698;23.332;2023-07-24T21:47:53;46887.44;;;28.23;51.11
6534;BME280;3300;42.698;23.332;2023-07-24T21:50:19;46912.88;;;28.23;51.06
6534;BME280;3300;42.698;23.332;2023-07-24T21:52:48;46883.53;;;28.23;51.07
6534;BME280;3300;42.698;23.332;2023-07-24T21:55:14;46905.06;;;28.23;51.13
6534;BME280;3300;42.698;23.332;2023-07-24T21:57:41;46860.03;;;28.23;51.05
6534;BME280;3300;42.698;23.332;2023-07-24T22:00:09;46875.69;;;28.23;51.20
6534;BME280;3300;42.698;23.332;2023-07-24T22:02:35;46854.16;;;28.23;51.22
6534;BME280;3300;42.698;23.332;2023-07-24T22:05:02;46869.81;;;28.23;51.12
6534;BME280;3300;42.698;23.332;2023-07-24T22:07:31;46897.22;;;28.23;51.27
6534;BME280;3300;42.698;23.332;2023-07-24T22:09:59;46908.97;;;28.23;51.41
6534;BME280;3300;42.698;23.332;2023-07-24T22:12:26;46905.06;;;28.23;51.40
6534;BME280;3300;42.698;23.332;2023-07-24T22:14:53;46871.78;;;28.23;51.26
6534;BME280;3300;42.698;23.332;2023-07-24T22:17:19;46883.53;;;28.23;51.20
6534;BME280;3300;42.698;23.332;2023-07-24T22:19:53;46873.75;;;28.23;51.09
6534;BME280;3300;42.698;23.332;2023-07-24T22:22:20;46912.88;;;28.23;51.09
6534;BME280;3300;42.698;23.332;2023-07-24T22:24:47;46863.94;;;28.23;51.11
6534;BME280;3300;42.698;23.332;2023-07-24T22:27:15;46912.88;;;28.23;51.23
6534;BME280;3300;42.698;23.332;2023-07-24T22:29:41;46877.66;;;28.23;51.29
6534;BME280;3300;42.698;23.332;2023-07-24T22:32:08;46883.53;;;28.23;51.35
6534;BME280;3300;42.698;23.332;2023-07-24T22:34:35;46869.81;;;28.23;51.23
6534;BME280;3300;42.698;23.332;2023-07-24T22:37:02;46869.81;;;28.23;51.72
6534;BME280;3300;42.698;23.332;2023-07-24T22:39:29;46901.13;;;28.23;52.08
6534;BME280;3300;42.698;23.332;2023-07-24T22:41:55;46873.75;;;28.23;52.37
6534;BME280;3300;42.698;23.332;2023-07-24T22:44:26;46887.44;;;28.23;52.55
6534;BME280;3300;42.698;23.332;2023-07-24T22:46:52;46897.22;;;28.23;52.49
6534;BME280;3300;42.698;23.332;2023-07-24T22:49:19;46916.78;;;28.23;51.91
6534;BME280;3300;42.698;23.332;2023-07-24T22:51:46;46877.66;;;28.23;50.79
6534;BME280;3300;42.698;23.332;2023-07-24T22:54:12;46869.81;;;28.23;49.55
6534;BME280;3300;42.698;23.332;2023-07-24T22:56:39;46850.25;;;28.23;48.77
6534;BME280;3300;42.698;23.332;2023-07-24T22:59:18;46877.66;;;28.23;47.91
6534;BME280;3300;42.698;23.332;2023-07-24T23:01:47;46879.63;;;28.23;47.48
6534;BME280;3300;42.698;23.332;2023-07-24T23:04:15;46863.94;;;28.23;46.74
6534;BME280;3300;42.698;23.332;2023-07-24T23:06:41;46867.88;;;28.23;46.04
6534;BME280;3300;42.698;23.332;2023-07-24T23:09:08;46869.81;;;28.23;45.21
6534;BME280;3300;42.698;23.332;2023-07-24T23:11:35;46885.47;;;28.23;44.74
6534;BME280;3300;42.698;23.332;2023-07-24T23:14:02;46893.31;;;28.23;44.18
6534;BME280;3300;42.698;23.332;2023-07-24T23:16:28;46885.47;;;28.23;44.01
6534;BME280;3300;42.698;23.332;2023-07-24T23:18:57;46889.41;;;28.23;44.21
6534;BME280;3300;42.698;23.332;2023-07-24T23:21:23;46905.06;;;28.23;44.96
6534;BME280;3300;42.698;23.332;2023-07-24T23:23:50;46903.09;;;28.23;45.67
6534;BME280;3300;42.698;23.332;2023-07-24T23:26:17;46850.25;;;28.23;46.45
6534;BME280;3300;42.698;23.332;2023-07-24T23:28:44;46879.63;;;28.23;47.23
6534;BME280;3300;42.698;23.332;2023-07-24T23:31:10;46846.34;;;28.23;47.67
6534;BME280;3300;42.698;23.332;2023-07-24T23:33:37;46889.41;;;28.23;48.24
6534;BME280;3300;42.698;23.332;2023-07-24T23:36:06;46885.47;;;28.23;48.80
6534;BME280;3300;42.698;23.332;2023-07-24T23:38:33;46899.19;;;28.23;49.10
6534;BME280;3300;42.698;23.332;2023-07-24T23:41:02;46881.56;;;28.23;49.58
6534;BME280;3300;42.698;23.332;2023-07-24T23:43:29;46863.94;;;28.23;49.76
6534;BME280;3300;42.698;23.332;2023-07-24T23:45:56;46893.31;;;28.23;50.13
6534;BME280;3300;42.698;23.332;2023-07-24T23:48:22;46895.28;;;28.23;50.45
6534;BME280;3300;42.698;23.332;2023-07-24T23:50:49;46863.94;;;28.23;50.62
6534;BME280;3300;42.698;23.332;2023-07-24T23:53:18;46934.41;;;28.23;50.70
6534;BME280;3300;42.698;23.332;2023-07-24T23:55:44;46877.66;;;28.23;50.97
6534;BME280;3300;42.698;23.332;2023-07-24T23:58:11;46901.13;;;28.23;50.99
